createdAt,value
2019-04-22T00:05:02.290Z,23.40
2019-04-22T00:10:26.357Z,23.50
2019-04-22T00:15:27.999Z,23.40
2019-04-22T00:20:42.273Z,23.40
2019-04-22T00:25:52.849Z,23.40
2019-04-22T00:30:53.779Z,23.40
2019-04-22T00:36:04.685Z,23.40
2019-04-22T00:41:06.869Z,23.40
2019-04-22T00:46:19.564Z,23.40
2019-04-22T00:51:28.828Z,23.40
2019-04-22T00:56:28.311Z,23.40
2019-04-22T01:01:36.899Z,23.40
2019-04-22T01:06:44.550Z,23.40
2019-04-22T01:11:55.670Z,23.40
2019-04-22T01:17:02.976Z,23.30
2019-04-22T01:22:13.699Z,23.30
2019-04-22T01:27:10.538Z,23.40
2019-04-22T01:32:00.418Z,23.30
2019-04-22T01:37:23.951Z,23.30
2019-04-22T01:42:42.804Z,23.30
2019-04-22T01:48:02.966Z,23.30
2019-04-22T01:53:00.966Z,23.30
2019-04-22T01:58:00.113Z,23.30
2019-04-22T02:03:12.041Z,23.30
2019-04-22T02:08:25.292Z,23.30
2019-04-22T02:13:21.962Z,23.30
2019-04-22T02:23:47.302Z,23.20
2019-04-22T02:44:14.075Z,23.20
2019-04-22T02:59:31.008Z,23.20
2019-04-22T03:04:47.226Z,23.20
2019-04-22T03:09:50.947Z,23.20
2019-04-22T03:15:09.618Z,23.10
2019-04-22T03:20:06.284Z,23.10
2019-04-22T03:25:42.768Z,23.10
2019-04-22T03:36:25.071Z,23.10
2019-04-22T03:40:44.716Z,23.10
2019-04-22T03:45:34.922Z,23.10
2019-04-22T03:50:46.289Z,23.10
2019-04-22T03:56:30.983Z,23.10
2019-04-22T04:01:13.843Z,23.10
2019-04-22T04:06:08.689Z,23.00
2019-04-22T04:11:25.384Z,23.00
2019-04-22T04:16:30.024Z,23.10
2019-04-22T04:21:32.934Z,23.00
2019-04-22T04:47:25.813Z,23.00
2019-04-22T04:52:33.218Z,22.90
2019-04-22T05:02:37.903Z,22.90
2019-04-22T05:22:51.613Z,22.90
2019-04-22T05:27:57.585Z,22.90
2019-04-22T05:33:07.345Z,22.90
2019-04-22T05:38:58.242Z,22.90
2019-04-22T05:43:30.997Z,22.90
2019-04-22T05:48:39.757Z,22.90
2019-04-22T05:53:40.488Z,22.90
2019-04-22T05:58:56.565Z,22.90
2019-04-22T06:03:58.708Z,22.90
2019-04-22T06:09:18.826Z,22.90
2019-04-22T06:14:10.315Z,22.90
2019-04-22T06:19:18.510Z,22.90
2019-04-22T06:24:28.974Z,22.90
2019-04-22T06:29:41.884Z,22.90
2019-04-22T06:34:43.158Z,22.90
2019-04-22T06:39:45.255Z,23.00
2019-04-22T06:44:58.185Z,23.00
2019-04-22T06:49:58.932Z,23.00
2019-04-22T06:55:10.191Z,23.10
2019-04-22T07:00:17.500Z,23.10
2019-04-22T07:05:23.570Z,23.10
2019-04-22T07:10:35.036Z,23.20
2019-04-22T07:15:46.450Z,23.20
2019-04-22T07:20:45.864Z,23.20
2019-04-22T07:25:52.159Z,23.20
2019-04-22T07:31:00.600Z,23.20
2019-04-22T07:41:17.240Z,23.20
2019-04-22T07:46:18.580Z,23.30
2019-04-22T07:51:32.917Z,23.20
2019-04-22T07:56:36.806Z,23.30
2019-04-22T08:01:43.446Z,23.30
2019-04-22T08:17:32.387Z,23.40
2019-04-22T08:22:11.785Z,23.20
2019-04-22T08:27:20.888Z,23.20
2019-04-22T08:32:28.012Z,23.00
2019-04-22T08:37:47.548Z,22.90
2019-04-22T08:42:53.092Z,22.90
2019-04-22T08:47:47.973Z,22.90
2019-04-22T08:53:05.766Z,23.00
2019-04-22T09:03:10.685Z,23.10
2019-04-22T09:08:18.860Z,23.20
2019-04-22T09:13:26.366Z,23.20
2019-04-22T09:18:39.893Z,23.30
2019-04-22T09:23:44.149Z,23.30
2019-04-22T09:28:52.270Z,23.30
2019-04-22T09:33:53.714Z,23.30
2019-04-22T09:39:00.869Z,23.20
2019-04-22T09:44:08.217Z,23.20
2019-04-22T09:59:34.973Z,23.30
2019-04-22T10:04:50.121Z,23.40
2019-04-22T10:14:55.506Z,23.40
2019-04-22T10:20:08.982Z,23.40
2019-04-22T10:25:10.767Z,23.40
2019-04-22T10:30:23.323Z,23.40
2019-04-22T10:35:20.955Z,23.40
2019-04-22T10:40:38.579Z,23.50
2019-04-22T10:45:46.022Z,23.50
2019-04-22T10:50:52.665Z,23.50
2019-04-22T10:55:58.904Z,23.50
2019-04-22T11:01:05.302Z,23.50
2019-04-22T11:06:11.618Z,23.50
2019-04-22T11:11:30.165Z,23.50
2019-04-22T11:16:25.720Z,23.60
2019-04-22T11:21:31.782Z,23.60
2019-04-22T11:26:38.861Z,23.60
2019-04-22T11:31:46.347Z,23.60
2019-04-22T11:36:54.957Z,23.60
2019-04-22T11:42:02.330Z,23.70
2019-04-22T11:47:09.666Z,23.60
2019-04-22T11:52:17.247Z,23.60
2019-04-22T11:57:23.415Z,23.60
2019-04-22T12:02:33.156Z,23.70
2019-04-22T12:07:40.920Z,23.70
2019-04-22T12:12:48.259Z,23.70
2019-04-22T12:17:55.267Z,23.70
2019-04-22T12:23:01.185Z,23.60
2019-04-22T12:28:08.796Z,23.60
2019-04-22T12:33:15.055Z,23.70
2019-04-22T12:38:22.116Z,23.60
2019-04-22T12:43:29.712Z,23.70
2019-04-22T12:48:35.367Z,23.70
2019-04-22T12:53:42.203Z,23.70
2019-04-22T12:58:49.647Z,23.70
2019-04-22T13:04:01.439Z,23.70
2019-04-22T13:09:04.148Z,23.70
2019-04-22T13:14:10.631Z,23.60
2019-04-22T13:19:18.690Z,23.70
2019-04-22T13:24:23.908Z,23.70
2019-04-22T13:29:31.103Z,23.60
2019-04-22T13:34:44.616Z,23.60
2019-04-22T13:39:45.054Z,23.60
2019-04-22T13:44:51.792Z,23.50
2019-04-22T13:50:43.678Z,23.50
2019-04-22T13:55:58.683Z,23.50
2019-04-22T14:00:56.431Z,23.50
2019-04-22T14:06:02.594Z,23.50
2019-04-22T14:11:16.840Z,23.50
2019-04-22T14:16:17.190Z,23.50
2019-04-22T14:21:23.145Z,23.50
2019-04-22T14:26:44.124Z,23.60
2019-04-22T14:31:36.506Z,23.60
2019-04-22T14:36:43.504Z,23.60
2019-04-22T14:42:10.890Z,23.60
2019-04-22T14:47:19.609Z,23.60
2019-04-22T14:52:30.718Z,23.70
2019-04-22T14:57:12.949Z,23.70
2019-04-22T15:02:19.640Z,23.70
2019-04-22T15:07:25.646Z,23.70
2019-04-22T15:12:39.200Z,23.70
2019-04-22T15:17:44.982Z,23.70
2019-04-22T15:22:50.756Z,23.80
2019-04-22T15:27:57.429Z,23.80
2019-04-22T15:33:03.417Z,23.80
2019-04-22T15:38:09.099Z,23.80
2019-04-22T15:43:15.001Z,23.80
2019-04-22T15:48:21.199Z,23.80
2019-04-22T15:53:27.590Z,23.80
2019-04-22T15:58:33.629Z,23.80
2019-04-22T16:03:40.646Z,23.80
2019-04-22T16:08:47.887Z,23.80
2019-04-22T16:13:54.718Z,23.80
2019-04-22T16:19:00.745Z,23.80
2019-04-22T16:24:22.330Z,23.80
2019-04-22T16:29:29.499Z,23.90
2019-04-22T16:34:36.039Z,23.80
2019-04-22T16:39:43.728Z,23.90
2019-04-22T16:44:49.619Z,23.80
2019-04-22T16:49:55.512Z,23.90
2019-04-22T16:55:01.406Z,23.80
2019-04-22T17:00:08.898Z,23.90
2019-04-22T17:05:49.865Z,23.90
2019-04-22T17:10:55.936Z,23.90
2019-04-22T17:16:02.326Z,23.90
2019-04-22T17:21:10.122Z,23.90
2019-04-22T17:26:16.689Z,23.90
2019-04-22T17:31:22.809Z,23.90
2019-04-22T17:36:29.816Z,23.90
2019-04-22T17:41:56.810Z,23.90
2019-04-22T17:47:04.930Z,23.90
2019-04-22T17:57:27.875Z,23.90
2019-04-22T18:02:36.546Z,23.80
2019-04-22T18:07:42.745Z,23.80
2019-04-22T18:13:01.754Z,23.80
2019-04-22T18:18:06.400Z,23.80
2019-04-22T18:22:59.608Z,23.80
2019-04-22T18:28:20.311Z,23.80
2019-04-22T18:33:24.323Z,23.80
2019-04-22T18:38:42.276Z,23.80
2019-04-22T18:43:42.333Z,23.80
2019-04-22T18:48:49.261Z,23.80
2019-04-22T18:54:06.513Z,23.80
2019-04-22T18:59:01.075Z,23.80
2019-04-22T19:04:05.614Z,23.70
2019-04-22T19:09:29.562Z,23.80
2019-04-22T19:14:43.872Z,23.80
2019-04-22T19:19:48.594Z,23.70
2019-04-22T19:24:41.948Z,23.70
2019-04-22T19:29:57.868Z,23.70
2019-04-22T19:35:03.778Z,23.70
2019-04-22T19:40:34.227Z,23.70
2019-04-22T19:45:15.776Z,23.70
2019-04-22T19:50:35.109Z,23.70
2019-04-22T19:55:39.032Z,23.70
2019-04-22T20:01:12.700Z,23.70
2019-04-22T20:06:33.576Z,23.70
2019-04-22T20:11:41.706Z,23.70
2019-04-22T20:16:41.430Z,23.60
2019-04-22T20:21:53.026Z,23.60
2019-04-22T20:27:05.663Z,23.60
2019-04-22T20:32:05.384Z,23.60
2019-04-22T20:37:23.696Z,23.60
2019-04-22T20:42:35.693Z,23.60
2019-04-22T20:47:30.455Z,23.60
2019-04-22T20:57:53.632Z,23.60
2019-04-22T21:02:48.848Z,23.60
2019-04-22T21:08:14.643Z,23.60
2019-04-22T21:13:11.628Z,23.60
2019-04-22T21:18:19.130Z,23.60
2019-04-22T21:23:29.969Z,23.60
2019-04-22T21:28:38.762Z,23.60
2019-04-22T21:33:48.846Z,23.60
2019-04-22T21:38:54.543Z,23.60
2019-04-22T21:44:05.509Z,23.60
2019-04-22T21:49:11.921Z,23.60
2019-04-22T21:54:22.047Z,23.60
2019-04-22T21:59:27.007Z,23.60
2019-04-22T22:04:30.335Z,23.60
2019-04-22T22:09:44.126Z,23.60
2019-04-22T22:14:50.019Z,23.60
2019-04-22T22:19:57.839Z,23.60
2019-04-22T22:25:07.801Z,23.60
2019-04-22T22:35:20.538Z,23.60
2019-04-22T22:40:15.445Z,23.60
2019-04-22T22:45:28.944Z,23.60
2019-04-22T22:50:43.185Z,23.60
2019-04-22T22:55:54.798Z,23.60
2019-04-22T23:01:02.833Z,23.60
2019-04-22T23:06:24.529Z,23.60
2019-04-22T23:11:21.011Z,23.60
2019-04-22T23:16:18.281Z,23.60
2019-04-22T23:21:22.649Z,23.60
2019-04-22T23:26:41.637Z,23.60
2019-04-22T23:37:44.881Z,23.60
2019-04-22T23:42:52.716Z,23.50
2019-04-22T23:47:46.099Z,23.50
2019-04-22T23:53:02.155Z,23.50
2019-04-22T23:58:27.567Z,23.50
